Time;durP1;ratioP1;P1;durP2;ratioP2;P2;SDS_P1;SDS_P2;PMS_P1;PMS_P2;Temp;Humidity;BMP_temperature;BMP_pressure;BME280_temperature;BME280_humidity;BME280_pressure;Samples;Min_cycle;Max_cycle;Signal;HPM_P1;HPM_P2
2022/01/12 00:00:47;;;;;;;;;;;;;;;11.02;46.20;102694.34;4936858;28;98678;-56
2022/01/12 00:03:13;;;;;;;;;;;;;;;11.01;46.33;102698.91;4920727;28;128180;-64
2022/01/12 00:05:39;;;;;;;;;;;;;;;11.02;45.91;102692.47;4922789;28;126021;-56
2022/01/12 00:08:07;;;;;;;;;;;;;;;11.03;46.62;102687.88;4920909;28;130201;-56
2022/01/12 00:10:33;;;;;;;;;;;;;;;11.03;46.52;102683.31;4922177;28;97679;-64
2022/01/12 00:12:59;;;;;;;;;;;;;;;11.02;46.34;102687.06;4929705;28;127986;-57
2022/01/12 00:15:25;;;;;;;;;;;;;;;11.03;46.03;102686.00;4941124;28;111721;-64
2022/01/12 00:17:51;;;;;;;;;;;;;;;11.03;46.39;102688.69;4941033;28;97850;-56
2022/01/12 00:20:17;;;;;;;;;;;;;;;11.04;45.96;102686.81;4940714;28;123124;-56
2022/01/12 00:22:43;;;;;;;;;;;;;;;11.03;46.44;102680.59;4932551;28;130533;-63
2022/01/12 00:33:13;;;;;;;;;;;;;;;11.05;46.76;102685.81;4931838;28;98379;-57
2022/01/12 00:35:40;;;;;;;;;;;;;;;11.06;46.33;102690.16;4933347;28;99192;-56
2022/01/12 00:38:07;;;;;;;;;;;;;;;11.06;46.49;102685.56;4941124;28;98685;-65
2022/01/12 00:40:33;;;;;;;;;;;;;;;11.07;46.27;102683.69;4940922;28;109715;-64
2022/01/12 00:42:59;;;;;;;;;;;;;;;11.07;46.67;102684.53;4923516;28;98164;-57
2022/01/12 00:45:25;;;;;;;;;;;;;;;11.09;46.18;102683.50;4936103;28;99089;-65
2022/01/12 00:47:51;;;;;;;;;;;;;;;11.09;46.15;102684.31;4921331;28;97865;-57
2022/01/12 00:50:17;;;;;;;;;;;;;;;11.09;46.08;102689.72;4928682;28;121811;-64
2022/01/12 00:52:43;;;;;;;;;;;;;;;11.10;46.89;102685.16;4927388;28;127252;-64
2022/01/12 00:55:09;;;;;;;;;;;;;;;11.11;46.54;102676.81;4920257;28;127939;-64
2022/01/12 00:57:35;;;;;;;;;;;;;;;11.11;46.69;102684.09;4931080;28;116092;-57
2022/01/12 01:00:02;;;;;;;;;;;;;;;11.12;46.52;102680.34;4940674;28;122619;-56
2022/01/12 01:02:28;;;;;;;;;;;;;;;11.11;46.87;102679.53;4933061;28;120576;-63
2022/01/12 01:04:55;;;;;;;;;;;;;;;11.12;46.36;102683.91;4921546;28;128263;-64
2022/01/12 01:07:21;;;;;;;;;;;;;;;11.12;46.30;102685.75;4921868;28;97964;-64
2022/01/12 01:09:57;;;;;;;;;;;;;;;11.11;46.32;102681.41;4920656;28;121953;-64
2022/01/12 01:12:23;;;;;;;;;;;;;;;11.10;46.65;102680.56;4922210;28;98330;-56
2022/01/12 01:15:03;;;;;;;;;;;;;;;11.09;46.29;102681.63;4921253;28;98649;-56
2022/01/12 01:25:36;;;;;;;;;;;;;;;11.11;47.01;102679.53;4920833;28;98153;-65
2022/01/12 01:28:02;;;;;;;;;;;;;;;11.10;46.32;102677.88;4921375;28;97905;-64
2022/01/12 01:30:28;;;;;;;;;;;;;;;11.10;46.59;102671.66;4921842;28;98000;-64
2022/01/12 01:32:57;;;;;;;;;;;;;;;11.11;46.82;102679.53;4921454;28;98647;-56
2022/01/12 01:35:26;;;;;;;;;;;;;;;11.12;46.91;102683.03;4921974;28;98552;-56
2022/01/12 01:37:52;;;;;;;;;;;;;;;11.12;46.78;102683.03;4921603;28;97741;-64
2022/01/12 01:40:18;;;;;;;;;;;;;;;11.11;46.97;102681.41;4921274;28;123358;-64
2022/01/12 01:53:34;;;;;;;;;;;;;;;11.11;46.75;102662.50;4919885;28;97985;-56
2022/01/12 01:56:00;;;;;;;;;;;;;;;11.12;47.00;102667.72;4920849;28;128771;-65
2022/01/12 01:58:26;;;;;;;;;;;;;;;11.13;46.60;102672.06;4935151;28;120868;-56
2022/01/12 02:00:52;;;;;;;;;;;;;;;11.13;46.55;102669.34;4919020;28;118723;-57
2022/01/12 02:03:19;;;;;;;;;;;;;;;11.13;46.85;102673.94;4920610;28;126920;-64
2022/01/12 02:05:44;;;;;;;;;;;;;;;11.13;46.72;102677.44;4932998;28;98614;-56
2022/01/12 02:08:10;;;;;;;;;;;;;;;11.12;46.85;102670.41;4937924;28;120252;-64
2022/01/12 02:10:36;;;;;;;;;;;;;;;11.13;46.38;102674.75;4940045;28;100576;-57
2022/01/12 02:13:03;;;;;;;;;;;;;;;11.14;46.39;102676.41;4932044;28;98397;-64
2022/01/12 02:15:29;;;;;;;;;;;;;;;11.15;46.36;102671.81;4927170;28;98062;-64
2022/01/12 02:35:18;;;;;;;;;;;;;;;11.16;46.52;102678.88;4928553;28;108476;-56
2022/01/12 02:37:13;;;;;;;;;;;;;;;11.15;46.74;102664.53;4939855;28;97986;-57
2022/01/12 02:39:56;;;;;;;;;;;;;;;11.14;46.71;102660.19;4940376;28;97997;-64
2022/01/12 02:42:24;;;;;;;;;;;;;;;11.16;46.57;102665.38;4933713;28;98424;-64
2022/01/12 02:50:57;;;;;;;;;;;;;;;11.14;47.10;102672.88;4917269;28;97902;-57
2022/01/12 02:55:56;;;;;;;;;;;;;;;11.13;47.06;102669.34;4919843;28;98169;-57
2022/01/12 02:58:22;;;;;;;;;;;;;;;11.13;46.86;102655.84;4933678;28;98745;-64
2022/01/12 03:01:29;;;;;;;;;;;;;;;11.13;46.71;102655.84;4928629;28;128107;-57
2022/01/12 03:03:52;;;;;;;;;;;;;;;11.13;47.00;102655.84;4927341;28;97728;-56
2022/01/12 03:06:22;;;;;;;;;;;;;;;11.13;46.46;102658.56;4920436;28;98856;-57
2022/01/12 03:08:49;;;;;;;;;;;;;;;11.14;47.14;102662.06;4920161;28;98084;-56
2022/01/12 03:11:17;;;;;;;;;;;;;;;11.13;46.87;102660.44;4927947;28;98624;-56
2022/01/12 03:13:43;;;;;;;;;;;;;;;11.13;47.28;102653.16;4924543;28;97992;-57
2022/01/12 03:16:17;;;;;;;;;;;;;;;11.13;46.69;102653.16;4923337;28;98463;-64
2022/01/12 03:18:43;;;;;;;;;;;;;;;11.14;46.58;102660.19;4923653;28;97776;-56
2022/01/12 03:21:09;;;;;;;;;;;;;;;11.13;46.45;102666.66;4936670;28;107007;-57
2022/01/12 03:23:35;;;;;;;;;;;;;;;11.15;46.63;102669.13;4923090;28;97990;-64
2022/01/12 03:26:01;;;;;;;;;;;;;;;11.13;46.79;102663.94;4923230;28;129693;-57
2022/01/12 03:28:27;;;;;;;;;;;;;;;11.14;46.66;102660.19;4923571;28;109728;-64
2022/01/12 03:30:58;;;;;;;;;;;;;;;11.14;46.69;102662.06;4923023;28;98060;-57
2022/01/12 03:34:29;;;;;;;;;;;;;;;11.13;46.89;102666.66;4923175;28;97892;-57
2022/01/12 03:39:07;;;;;;;;;;;;;;;11.14;46.40;102668.31;4915213;28;98018;-56
2022/01/12 03:41:36;;;;;;;;;;;;;;;11.13;47.11;102665.81;4922759;28;98744;-56
2022/01/12 03:44:04;;;;;;;;;;;;;;;11.13;46.67;102655.84;4923857;28;98066;-56
2022/01/12 03:46:31;;;;;;;;;;;;;;;11.12;47.00;102653.34;4922997;28;99356;-56
2022/01/12 03:48:57;;;;;;;;;;;;;;;11.13;46.73;102661.25;4923060;28;98270;-57
2022/01/12 03:51:23;;;;;;;;;;;;;;;11.13;47.14;102655.03;4928306;28;117384;-56
2022/01/12 03:53:49;;;;;;;;;;;;;;;11.13;46.78;102649.63;4922735;28;98192;-56
2022/01/12 03:56:15;;;;;;;;;;;;;;;11.12;46.63;102653.34;4920960;28;121867;-64
2022/01/12 03:58:41;;;;;;;;;;;;;;;11.12;47.02;102656.06;4935523;28;128357;-64
2022/01/12 04:01:07;;;;;;;;;;;;;;;11.13;46.77;102652.34;4922437;28;117529;-56
2022/01/12 04:03:38;;;;;;;;;;;;;;;11.13;46.87;102652.34;4922218;28;121932;-64
2022/01/12 04:08:49;;;;;;;;;;;;;;;11.12;46.45;102654.22;4935261;28;97878;-57
2022/01/12 04:11:15;;;;;;;;;;;;;;;11.13;46.97;102649.63;4923331;28;97879;-56
2022/01/12 04:13:42;;;;;;;;;;;;;;;11.12;46.52;102647.97;4922281;28;123333;-56
2022/01/12 04:16:08;;;;;;;;;;;;;;;11.12;46.94;102647.97;4921146;28;98714;-57
2022/01/12 04:18:35;;;;;;;;;;;;;;;11.12;46.71;102656.91;4922952;28;98773;-64
2022/01/12 04:21:06;;;;;;;;;;;;;;;11.12;46.86;102656.91;4921149;28;127470;-64
2022/01/12 04:23:32;;;;;;;;;;;;;;;11.13;47.14;102655.03;4921845;28;97916;-66
2022/01/12 04:25:59;;;;;;;;;;;;;;;11.13;46.83;102649.63;4919665;28;128768;-57
2022/01/12 04:28:26;;;;;;;;;;;;;;;11.13;46.50;102660.44;4922522;28;98635;-56
2022/01/12 04:30:53;;;;;;;;;;;;;;;11.11;46.72;102655.22;4922957;28;98053;-57
2022/01/12 04:33:19;;;;;;;;;;;;;;;11.12;46.89;102670.41;4922730;28;99446;-65
2022/01/12 04:35:48;;;;;;;;;;;;;;;11.13;46.84;102674.75;4922243;28;98975;-64
2022/01/12 04:38:15;;;;;;;;;;;;;;;11.12;46.72;102665.00;4922140;28;98516;-64
2022/01/12 04:40:41;;;;;;;;;;;;;;;11.13;47.06;102671.22;4922223;28;123420;-64
2022/01/12 04:43:10;;;;;;;;;;;;;;;11.12;46.96;102665.00;4921351;28;117445;-64
2022/01/12 04:45:46;;;;;;;;;;;;;;;11.12;47.12;102661.44;4922356;28;99291;-56
2022/01/12 04:50:40;;;;;;;;;;;;;;;11.13;46.77;102671.22;4930109;28;97724;-57
2022/01/12 04:53:06;;;;;;;;;;;;;;;11.12;47.14;102675.81;4922169;28;98963;-57
2022/01/12 04:55:32;;;;;;;;;;;;;;;11.12;47.03;102678.50;4921321;28;128356;-64
2022/01/12 04:57:58;;;;;;;;;;;;;;;11.12;47.09;102677.66;4922881;28;98502;-64
2022/01/12 05:00:26;;;;;;;;;;;;;;;11.13;46.71;102677.44;4920399;28;127740;-65
2022/01/12 05:13:42;;;;;;;;;;;;;;;11.12;46.76;102670.41;4922915;28;97821;-56
2022/01/12 05:16:11;;;;;;;;;;;;;;;11.13;46.44;102679.31;4936017;28;98669;-64
2022/01/12 05:18:37;;;;;;;;;;;;;;;11.13;46.67;102682.84;4941267;28;98570;-56
2022/01/12 05:21:03;;;;;;;;;;;;;;;11.13;46.83;102679.31;4936150;28;121676;-57
2022/01/12 05:23:29;;;;;;;;;;;;;;;11.14;47.01;102678.28;4921423;28;97812;-56
2022/01/12 05:25:55;;;;;;;;;;;;;;;11.14;46.77;102675.56;4921510;28;98982;-64
2022/01/12 05:28:22;;;;;;;;;;;;;;;11.13;46.93;102672.06;4919475;28;128429;-56
2022/01/12 05:30:48;;;;;;;;;;;;;;;11.13;46.86;102663.13;4921387;28;103344;-65
2022/01/12 05:33:14;;;;;;;;;;;;;;;11.12;46.52;102669.53;4937242;28;123781;-63
2022/01/12 05:35:41;;;;;;;;;;;;;;;11.13;46.79;102674.75;4938581;28;98247;-64
2022/01/12 05:38:13;;;;;;;;;;;;;;;11.12;46.50;102667.72;4937414;28;98519;-65
2022/01/12 05:40:40;;;;;;;;;;;;;;;11.12;47.06;102667.72;4925911;28;98006;-64
2022/01/12 05:43:06;;;;;;;;;;;;;;;11.11;46.63;102671.44;4917662;28;97925;-64
2022/01/12 05:45:33;;;;;;;;;;;;;;;11.10;47.16;102669.78;4918827;28;98206;-65
2022/01/12 05:50:26;;;;;;;;;;;;;;;11.07;46.82;102673.72;4914964;28;98094;-64
2022/01/12 05:52:52;;;;;;;;;;;;;;;11.10;47.09;102683.28;4917243;28;102447;-64
2022/01/12 05:55:18;;;;;;;;;;;;;;;11.07;47.18;102678.31;4919767;28;127556;-65
2022/01/12 05:57:44;;;;;;;;;;;;;;;11.09;46.52;102692.41;4918825;28;126888;-64
2022/01/12 06:00:14;;;;;;;;;;;;;;;11.07;46.74;102695.31;4920844;28;98612;-64
2022/01/12 06:02:40;;;;;;;;;;;;;;;11.07;47.13;102698.03;4928259;28;112437;-64
2022/01/12 06:05:07;;;;;;;;;;;;;;;11.07;46.54;102697.19;4925779;28;123202;-64
2022/01/12 06:07:33;;;;;;;;;;;;;;;11.06;46.53;102693.66;4920198;28;97715;-64
2022/01/12 06:09:59;;;;;;;;;;;;;;;11.06;46.85;102699.06;4919417;28;126954;-64
2022/01/12 06:12:25;;;;;;;;;;;;;;;11.05;47.12;102702.00;4920824;28;107492;-64
2022/01/12 06:14:51;;;;;;;;;;;;;;;11.05;46.92;102704.69;4921418;28;98875;-64
2022/01/12 06:17:17;;;;;;;;;;;;;;;11.03;46.47;102693.28;4940565;28;126933;-64
2022/01/12 06:19:43;;;;;;;;;;;;;;;11.04;46.63;102703.03;4940146;28;98056;-64
2022/01/12 06:22:09;;;;;;;;;;;;;;;11.03;46.84;102704.91;4940321;28;122552;-64
2022/01/12 06:24:35;;;;;;;;;;;;;;;11.03;46.87;102706.78;4939213;28;129140;-64
2022/01/12 06:27:03;;;;;;;;;;;;;;;11.03;46.99;102709.47;4934152;28;99024;-64
2022/01/12 06:30:01;;;;;;;;;;;;;;;11.03;46.47;102709.47;4936023;28;100052;-64
2022/01/12 06:32:27;;;;;;;;;;;;;;;11.03;46.83;102704.06;4910841;28;98964;-64
2022/01/12 06:34:53;;;;;;;;;;;;;;;11.02;47.22;102695.16;4919467;28;123141;-65
2022/01/12 06:37:19;;;;;;;;;;;;;;;11.03;46.76;102701.38;4919503;28;129557;-64
2022/01/12 06:39:45;;;;;;;;;;;;;;;11.01;46.71;102704.31;4925282;28;117747;-65
2022/01/12 06:42:11;;;;;;;;;;;;;;;11.00;47.10;102701.81;4941118;28;121537;-64
2022/01/12 06:44:37;;;;;;;;;;;;;;;11.02;46.96;102705.13;4938275;28;126928;-64
2022/01/12 06:47:04;;;;;;;;;;;;;;;11.01;46.57;102700.78;4934571;28;128286;-64
2022/01/12 06:49:30;;;;;;;;;;;;;;;11.01;46.45;102703.47;4924539;28;98551;-64
2022/01/12 06:51:59;;;;;;;;;;;;;;;11.00;46.53;102701.81;4943047;28;110500;-65
2022/01/12 06:54:25;;;;;;;;;;;;;;;11.00;47.04;102701.81;4942521;28;99158;-64
2022/01/12 06:56:51;;;;;;;;;;;;;;;11.00;46.94;102696.41;4929088;28;98306;-64
2022/01/12 06:59:17;;;;;;;;;;;;;;;11.01;46.97;102703.47;4940886;28;126301;-64
2022/01/12 07:01:44;;;;;;;;;;;;;;;10.99;46.67;102703.69;4935590;28;122351;-64
2022/01/12 07:04:10;;;;;;;;;;;;;;;11.01;46.50;102708.88;4941549;28;98971;-56
2022/01/12 07:06:36;;;;;;;;;;;;;;;11.02;46.56;102707.81;4942398;28;123686;-57
2022/01/12 07:09:03;;;;;;;;;;;;;;;11.02;46.37;102689.75;4943076;28;98491;-56
2022/01/12 07:11:29;;;;;;;;;;;;;;;11.02;46.53;102700.56;4941874;28;97794;-56
2022/01/12 07:13:55;;;;;;;;;;;;;;;11.04;47.02;102697.63;4941702;28;99079;-56
2022/01/12 07:16:21;;;;;;;;;;;;;;;11.03;46.19;102704.91;4940659;28;129016;-65
2022/01/12 07:18:47;;;;;;;;;;;;;;;11.04;46.86;102701.19;4941390;28;126647;-64
2022/01/12 07:21:13;;;;;;;;;;;;;;;11.06;46.42;102695.56;4926231;28;121992;-63
2022/01/12 07:23:39;;;;;;;;;;;;;;;11.05;46.75;102694.72;4931891;28;127162;-65
2022/01/12 07:26:05;;;;;;;;;;;;;;;11.07;46.80;102711.50;4941605;28;127442;-56
2022/01/12 07:28:31;;;;;;;;;;;;;;;11.06;46.35;102714.44;4941642;28;98201;-64
2022/01/12 07:30:57;;;;;;;;;;;;;;;11.07;46.63;102721.50;4942056;28;112491;-65
2022/01/12 07:33:25;;;;;;;;;;;;;;;11.07;46.49;102733.09;4939532;28;104346;-56
2022/01/12 07:35:51;;;;;;;;;;;;;;;11.07;46.71;102726.88;4928376;28;98304;-56
2022/01/12 07:38:17;;;;;;;;;;;;;;;11.07;46.34;102729.59;4921120;28;98788;-56
2022/01/12 07:40:43;;;;;;;;;;;;;;;11.07;46.24;102727.72;4921178;28;98013;-56
2022/01/12 07:43:09;;;;;;;;;;;;;;;11.08;46.76;102717.75;4919651;28;115427;-57
2022/01/12 07:45:35;;;;;;;;;;;;;;;11.06;46.32;102717.97;4920159;28;115048;-56
2022/01/12 07:48:01;;;;;;;;;;;;;;;11.07;46.93;102719.63;4925779;28;98004;-57
2022/01/12 07:50:27;;;;;;;;;;;;;;;11.06;46.96;102717.97;4940661;28;98318;-57
2022/01/12 07:52:53;;;;;;;;;;;;;;;11.07;46.58;102727.72;4938484;28;118485;-57
2022/01/12 07:55:23;;;;;;;;;;;;;;;11.07;46.87;102725.00;4931867;28;97851;-56
2022/01/12 07:57:49;;;;;;;;;;;;;;;11.08;46.37;102728.53;4927538;28;98704;-56
2022/01/12 08:00:15;;;;;;;;;;;;;;;11.10;46.74;102729.16;4939151;28;118950;-56
2022/01/12 08:02:41;;;;;;;;;;;;;;;11.11;46.38;102729.97;4932381;28;98473;-56
2022/01/12 08:05:08;;;;;;;;;;;;;;;11.11;46.93;102730.81;4919886;28;105379;-56
2022/01/12 08:07:36;;;;;;;;;;;;;;;11.13;46.73;102744.09;4920877;28;98020;-56
2022/01/12 08:10:04;;;;;;;;;;;;;;;11.17;46.40;102734.53;4920204;28;99601;-56
2022/01/12 08:12:29;;;;;;;;;;;;;;;11.19;46.26;102741.34;4920403;28;120736;-56
2022/01/12 08:14:55;;;;;;;;;;;;;;;11.26;46.16;102739.44;4918980;28;123462;-56
2022/01/12 08:17:21;;;;;;;;;;;;;;;11.36;46.25;102735.44;4935155;28;97980;-64
2022/01/12 08:19:47;;;;;;;;;;;;;;;11.44;46.53;102737.91;4940642;28;122418;-64
2022/01/12 08:22:13;;;;;;;;;;;;;;;11.53;45.93;102741.97;4921470;28;98962;-57
2022/01/12 08:24:39;;;;;;;;;;;;;;;11.60;46.27;102740.06;4921879;28;108143;-65
2022/01/12 08:27:06;;;;;;;;;;;;;;;11.70;46.00;102743.09;4922100;28;127603;-64
2022/01/12 08:29:32;;;;;;;;;;;;;;;11.78;45.82;102728.47;4922215;28;99823;-64
2022/01/12 08:31:58;;;;;;;;;;;;;;;11.85;46.17;102736.56;4919158;28;103611;-64
2022/01/12 08:34:24;;;;;;;;;;;;;;;12.06;45.78;102728.03;4921838;28;98041;-64
2022/01/12 08:36:50;;;;;;;;;;;;;;;12.21;45.47;102735.81;4921552;28;98212;-64
2022/01/12 08:39:16;;;;;;;;;;;;;;;12.29;45.66;102749.03;4921916;28;97997;-64
2022/01/12 08:41:42;;;;;;;;;;;;;;;12.38;45.60;102744.16;4922160;28;128290;-64
2022/01/12 08:44:08;;;;;;;;;;;;;;;12.39;45.64;102745.84;4932534;28;100315;-65
2022/01/12 08:46:34;;;;;;;;;;;;;;;12.44;45.69;102740.56;4910875;28;98060;-64
2022/01/12 08:49:00;;;;;;;;;;;;;;;12.49;46.02;102738.81;4922507;28;98364;-57
2022/01/12 08:51:26;;;;;;;;;;;;;;;12.48;45.66;102737.19;4936911;28;121094;-57
2022/01/12 08:53:52;;;;;;;;;;;;;;;12.53;45.68;102747.31;4939834;28;127339;-57
2022/01/12 08:56:19;;;;;;;;;;;;;;;12.56;45.67;102743.34;4939017;28;127242;-57
2022/01/12 08:58:46;;;;;;;;;;;;;;;12.57;46.10;102739.59;4941122;28;97930;-65
2022/01/12 09:01:12;;;;;;;;;;;;;;;12.61;45.85;102743.50;4938758;28;118169;-64
2022/01/12 09:03:39;;;;;;;;;;;;;;;12.66;45.88;102747.19;4941049;28;98580;-56
2022/01/12 09:06:05;;;;;;;;;;;;;;;12.74;45.88;102741.47;4926002;28;98183;-57
2022/01/12 09:08:31;;;;;;;;;;;;;;;12.82;45.78;102740.34;4921639;28;99684;-64
2022/01/12 09:10:57;;;;;;;;;;;;;;;12.95;45.55;102742.84;4931362;28;99200;-64
2022/01/12 09:13:23;;;;;;;;;;;;;;;13.09;45.51;102738.09;4920917;28;127705;-57
2022/01/12 09:15:49;;;;;;;;;;;;;;;13.23;45.57;102741.47;4914267;28;127896;-65
2022/01/12 09:18:15;;;;;;;;;;;;;;;13.36;45.03;102738.59;4920836;28;122522;-65
2022/01/12 09:20:41;;;;;;;;;;;;;;;13.45;45.53;102739.06;4923132;28;99149;-57
2022/01/12 09:23:07;;;;;;;;;;;;;;;13.53;45.50;102730.63;4921364;28;128288;-57
2022/01/12 09:25:35;;;;;;;;;;;;;;;13.59;45.40;102731.56;4919923;28;128030;-64
2022/01/12 09:28:02;;;;;;;;;;;;;;;13.62;45.57;102733.81;4921857;28;98063;-56
2022/01/12 09:30:29;;;;;;;;;;;;;;;13.69;45.59;102737.25;4929710;28;97872;-57
2022/01/12 09:32:55;;;;;;;;;;;;;;;13.79;45.45;102737.47;4940131;28;128147;-65
2022/01/12 09:35:20;;;;;;;;;;;;;;;13.90;45.31;102725.00;4939271;28;122534;-65
2022/01/12 09:37:46;;;;;;;;;;;;;;;13.98;45.17;102733.59;4936786;28;123298;-57
2022/01/12 09:40:13;;;;;;;;;;;;;;;14.07;45.53;102738.66;4933763;28;127125;-57
2022/01/12 09:42:38;;;;;;;;;;;;;;;14.15;45.34;102741.06;4920227;28;104542;-57
2022/01/12 09:45:07;;;;;;;;;;;;;;;14.21;45.29;102742.81;4920497;28;97981;-57
2022/01/12 09:47:33;;;;;;;;;;;;;;;14.28;45.56;102743.50;4922616;28;98029;-64
2022/01/12 09:49:59;;;;;;;;;;;;;;;14.34;45.58;102734.41;4921109;28;98432;-64
2022/01/12 09:52:24;;;;;;;;;;;;;;;14.40;45.58;102752.47;4922435;28;117419;-65
2022/01/12 09:54:50;;;;;;;;;;;;;;;14.53;45.60;102750.56;4920354;28;103820;-64
2022/01/12 09:57:19;;;;;;;;;;;;;;;14.60;45.13;102754.81;4920852;28;97806;-57
2022/01/12 09:59:45;;;;;;;;;;;;;;;14.65;45.30;102763.06;4919863;28;99020;-57
2022/01/12 10:02:15;;;;;;;;;;;;;;;14.64;45.51;102753.28;4921884;28;112806;-65
2022/01/12 10:04:41;;;;;;;;;;;;;;;14.67;45.69;102752.78;4920168;28;100805;-64
2022/01/12 10:07:07;;;;;;;;;;;;;;;14.69;45.63;102747.94;4921949;28;120662;-64
2022/01/12 10:09:38;;;;;;;;;;;;;;;14.75;45.62;102745.34;4933160;28;126170;-64
2022/01/12 10:12:09;;;;;;;;;;;;;;;14.80;45.57;102737.28;4940160;28;98702;-66
2022/01/12 10:14:40;;;;;;;;;;;;;;;14.81;45.64;102747.09;4928583;28;118717;-57
2022/01/12 10:17:06;;;;;;;;;;;;;;;14.78;45.81;102736.72;4920202;28;97934;-65
2022/01/12 10:19:32;;;;;;;;;;;;;;;14.71;45.88;102721.41;4918876;28;128156;-57
2022/01/12 10:21:59;;;;;;;;;;;;;;;14.62;46.13;102716.56;4921739;28;98585;-57
2022/01/12 10:24:26;;;;;;;;;;;;;;;14.54;46.30;102730.50;4923222;28;97969;-65
2022/01/12 10:26:52;;;;;;;;;;;;;;;14.52;46.59;102722.63;4925168;28;98030;-65
2022/01/12 10:29:20;;;;;;;;;;;;;;;14.51;46.27;102720.97;4925436;28;98885;-65
2022/01/12 10:31:50;;;;;;;;;;;;;;;14.50;46.63;102719.31;4904879;28;99088;-65
2022/01/12 10:34:16;;;;;;;;;;;;;;;14.49;46.48;102718.50;4909147;28;98374;-65
2022/01/12 10:36:44;;;;;;;;;;;;;;;14.48;46.46;102718.69;4929280;28;97790;-65
2022/01/12 10:39:12;;;;;;;;;;;;;;;14.46;46.48;102728.97;4943110;28;99045;-64
2022/01/12 10:41:54;;;;;;;;;;;;;;;14.48;46.60;102710.56;4928879;28;97912;-64
2022/01/12 10:44:24;;;;;;;;;;;;;;;14.49;46.51;102710.34;4924125;28;99207;-57
2022/01/12 10:47:09;;;;;;;;;;;;;;;14.51;46.61;102706.59;4922823;28;97994;-57
2022/01/12 10:49:37;;;;;;;;;;;;;;;14.49;46.70;102699.50;4922071;28;98343;-57
2022/01/12 10:52:05;;;;;;;;;;;;;;;14.47;47.00;102696.19;4923230;28;99165;-57
2022/01/12 10:54:41;;;;;;;;;;;;;;;14.45;46.78;102695.56;4920392;28;117448;-57
2022/01/12 10:57:15;;;;;;;;;;;;;;;14.43;46.95;102688.75;4928676;28;97925;-57
2022/01/12 10:59:41;;;;;;;;;;;;;;;14.40;47.29;102692.75;4941722;28;99423;-56
2022/01/12 11:02:07;;;;;;;;;;;;;;;14.40;47.40;102683.81;4925381;28;98433;-57
2022/01/12 11:04:33;;;;;;;;;;;;;;;14.37;47.15;102679.66;4932956;28;117928;-57
2022/01/12 11:06:59;;;;;;;;;;;;;;;14.37;47.15;102681.56;4940066;28;98023;-57
2022/01/12 11:09:26;;;;;;;;;;;;;;;14.37;47.27;102690.53;4900951;28;99101;-57
2022/01/12 11:11:52;;;;;;;;;;;;;;;14.39;47.38;102690.31;4916848;28;98194;-57
2022/01/12 11:14:18;;;;;;;;;;;;;;;14.40;47.32;102686.53;4918296;28;126806;-57
2022/01/12 11:16:44;;;;;;;;;;;;;;;14.41;47.41;102680.84;4919467;28;110482;-57
2022/01/12 11:19:10;;;;;;;;;;;;;;;14.42;47.57;102681.66;4918858;28;128431;-57
2022/01/12 11:21:45;;;;;;;;;;;;;;;14.43;47.46;102677.91;4921079;28;127674;-57
2022/01/12 11:24:13;;;;;;;;;;;;;;;14.47;47.23;102679.91;4920028;28;105982;-57
2022/01/12 11:26:47;;;;;;;;;;;;;;;14.57;47.23;102683.91;4922269;28;98022;-57
2022/01/12 11:29:13;;;;;;;;;;;;;;;14.69;47.37;102681.97;4911034;28;98630;-64
2022/01/12 11:31:40;;;;;;;;;;;;;;;14.77;47.24;102691.63;4920976;28;128353;-65
2022/01/12 11:34:15;;;;;;;;;;;;;;;14.77;47.43;102689.72;4936888;28;98416;-65
2022/01/12 11:36:41;;;;;;;;;;;;;;;14.77;47.12;102686.19;4919289;28;115816;-65
2022/01/12 11:39:14;;;;;;;;;;;;;;;14.78;47.48;102688.69;4920722;28;128148;-57
2022/01/12 11:41:42;;;;;;;;;;;;;;;14.83;47.03;102685.25;4921895;28;113449;-57
2022/01/12 11:44:22;;;;;;;;;;;;;;;14.92;47.50;102689.19;4922602;28;98577;-57
2022/01/12 11:46:49;;;;;;;;;;;;;;;15.03;46.98;102676.66;4923271;28;97826;-64
2022/01/12 11:49:30;;;;;;;;;;;;;;;15.16;46.73;102679.88;4921597;28;98350;-65
2022/01/12 11:51:57;;;;;;;;;;;;;;;15.29;46.68;102667.03;4940908;28;98384;-57
2022/01/12 11:54:30;;;;;;;;;;;;;;;15.36;47.14;102671.25;4941601;28;98796;-57
2022/01/12 11:56:57;;;;;;;;;;;;;;;15.39;46.94;102668.03;4941242;28;104669;-57
2022/01/12 11:59:24;;;;;;;;;;;;;;;15.35;47.15;102664.16;4942684;28;98815;-55
2022/01/12 12:01:52;;;;;;;;;;;;;;;15.29;47.34;102664.31;4928525;28;98358;-64
2022/01/12 12:04:26;;;;;;;;;;;;;;;15.23;47.59;102658.81;4921657;28;97933;-56
2022/01/12 12:07:12;;;;;;;;;;;;;;;15.21;47.31;102665.56;4922890;28;98135;-57
2022/01/12 12:09:53;;;;;;;;;;;;;;;15.21;47.45;102658.25;4922489;28;105751;-64
2022/01/12 12:12:23;;;;;;;;;;;;;;;15.24;47.23;102665.06;4921812;28;99290;-57
2022/01/12 12:14:53;;;;;;;;;;;;;;;15.27;47.62;102671.91;4921583;28;118125;-64
2022/01/12 12:17:19;;;;;;;;;;;;;;;15.35;47.16;102668.78;4922089;28;97845;-57
2022/01/12 12:19:48;;;;;;;;;;;;;;;15.44;47.25;102676.28;4921954;28;98129;-57
2022/01/12 12:22:18;;;;;;;;;;;;;;;15.50;47.18;102677.19;4927421;28;98502;-56
2022/01/12 12:24:55;;;;;;;;;;;;;;;15.54;47.39;102672.09;4922806;28;98516;-57
2022/01/12 12:27:23;;;;;;;;;;;;;;;15.54;47.37;102672.91;4921484;28;98263;-65
2022/01/12 12:29:49;;;;;;;;;;;;;;;15.54;47.15;102672.09;4921964;28;111469;-58
2022/01/12 12:32:16;;;;;;;;;;;;;;;15.51;47.37;102669.84;4922355;28;98437;-65
2022/01/12 12:34:43;;;;;;;;;;;;;;;15.46;47.45;102682.28;4923639;28;98430;-57
2022/01/12 12:37:14;;;;;;;;;;;;;;;15.44;47.44;102681.72;4941256;28;98000;-57
2022/01/12 12:39:43;;;;;;;;;;;;;;;15.44;47.58;102679.00;4940117;28;121223;-57
2022/01/12 12:42:17;;;;;;;;;;;;;;;15.45;47.30;102677.94;4939921;28;112690;-57
2022/01/12 12:44:43;;;;;;;;;;;;;;;15.46;47.78;102681.47;4939765;28;98179;-65
2022/01/12 12:47:14;;;;;;;;;;;;;;;15.45;47.46;102679.81;4940437;28;113761;-57
2022/01/12 12:49:51;;;;;;;;;;;;;;;15.44;47.83;102679.00;4940474;28;97854;-65
2022/01/12 12:52:29;;;;;;;;;;;;;;;15.39;47.76;102667.22;4940457;28;98520;-58
2022/01/12 12:55:00;;;;;;;;;;;;;;;15.34;47.60;102667.13;4935291;28;98332;-63
2022/01/12 12:57:26;;;;;;;;;;;;;;;15.31;48.19;102675.78;4922383;28;97800;-65
2022/01/12 13:00:11;;;;;;;;;;;;;;;15.30;47.97;102677.66;4921665;28;98130;-57
2022/01/12 13:02:48;;;;;;;;;;;;;;;15.32;47.68;102699.97;4921261;28;98112;-57
2022/01/12 13:05:24;;;;;;;;;;;;;;;15.32;47.97;102699.97;4921444;28;98242;-57
2022/01/12 13:07:50;;;;;;;;;;;;;;;15.31;47.79;102684.75;4922471;28;97758;-57
2022/01/12 13:10:18;;;;;;;;;;;;;;;15.29;48.06;102691.47;4928862;28;98497;-64
2022/01/12 13:12:45;;;;;;;;;;;;;;;15.22;48.23;102687.06;4940761;28;98188;-65
2022/01/12 13:15:23;;;;;;;;;;;;;;;15.16;48.20;102693.44;4938413;28;98161;-65
2022/01/12 13:17:56;;;;;;;;;;;;;;;15.10;48.21;102689.00;4939552;28;97869;-57
2022/01/12 13:22:50;;;;;;;;;;;;;;;15.00;48.34;102680.66;4938159;28;98449;-57
2022/01/12 13:25:16;;;;;;;;;;;;;;;14.97;48.15;102676.56;4939823;28;97872;-65
2022/01/12 13:27:44;;;;;;;;;;;;;;;14.93;48.73;102672.69;4941007;28;97750;-57
2022/01/12 13:30:24;;;;;;;;;;;;;;;14.91;48.27;102682.13;4938830;28;98387;-57
2022/01/12 13:32:54;;;;;;;;;;;;;;;14.87;48.63;102679.06;4926260;28;98940;-57
2022/01/12 13:35:29;;;;;;;;;;;;;;;14.85;48.40;102674.94;4920901;28;98399;-57
2022/01/12 13:37:57;;;;;;;;;;;;;;;14.81;48.64;102677.31;4920343;28;98019;-65
2022/01/12 13:40:23;;;;;;;;;;;;;;;14.79;48.41;102673.22;4921715;28;98339;-64
2022/01/12 13:42:50;;;;;;;;;;;;;;;14.77;48.45;102678.88;4920933;28;97717;-65
2022/01/12 13:45:20;;;;;;;;;;;;;;;14.76;48.39;102684.56;4931450;28;98149;-57
2022/01/12 13:47:49;;;;;;;;;;;;;;;14.76;48.22;102679.13;4936498;28;112475;-57
2022/01/12 13:50:15;;;;;;;;;;;;;;;14.74;48.61;102682.09;4939724;28;99105;-64
2022/01/12 13:52:51;;;;;;;;;;;;;;;14.70;48.64;102670.88;4938681;28;99292;-65